sensor_id;sensor_type;location;lat;lon;timestamp;temperature;humidity
27004;DHT22;14546;47.590;19.022;2023-06-24T00:01:59;18.20;99.90
27004;DHT22;14546;47.590;19.022;2023-06-24T00:04:24;18.20;99.90
27004;DHT22;14546;47.590;19.022;2023-06-24T00:06:50;18.20;99.90
27004;DHT22;14546;47.590;19.022;2023-06-24T00:09:17;18.20;99.90
27004;DHT22;14546;47.590;19.022;2023-06-24T00:11:43;18.20;99.90
27004;DHT22;14546;47.590;19.022;2023-06-24T00:14:09;18.20;99.90
27004;DHT22;14546;47.590;19.022;2023-06-24T00:16:36;18.20;99.90
27004;DHT22;14546;47.590;19.022;2023-06-24T00:19:02;18.20;99.90
27004;DHT22;14546;47.590;19.022;2023-06-24T00:21:28;18.20;99.90
27004;DHT22;14546;47.590;19.022;2023-06-24T00:24:00;18.20;99.90
27004;DHT22;14546;47.590;19.022;2023-06-24T00:26:32;18.20;99.90
27004;DHT22;14546;47.590;19.022;2023-06-24T00:28:58;18.20;99.90
27004;DHT22;14546;47.590;19.022;2023-06-24T00:31:24;18.20;99.90
27004;DHT22;14546;47.590;19.022;2023-06-24T00:33:50;18.20;99.90
27004;DHT22;14546;47.590;19.022;2023-06-24T00:36:17;18.20;99.90
27004;DHT22;14546;47.590;19.022;2023-06-24T00:38:43;18.20;99.90
27004;DHT22;14546;47.590;19.022;2023-06-24T00:41:09;18.20;99.90
27004;DHT22;14546;47.590;19.022;2023-06-24T00:43:35;18.20;99.90
27004;DHT22;14546;47.590;19.022;2023-06-24T00:46:01;18.20;99.90
27004;DHT22;14546;47.590;19.022;2023-06-24T00:48:27;18.10;99.90
27004;DHT22;14546;47.590;19.022;2023-06-24T00:50:53;18.20;99.90
27004;DHT22;14546;47.590;19.022;2023-06-24T00:53:19;18.10;99.90
27004;DHT22;14546;47.590;19.022;2023-06-24T00:55:50;18.10;99.90
27004;DHT22;14546;47.590;19.022;2023-06-24T00:58:18;18.10;99.90
27004;DHT22;14546;47.590;19.022;2023-06-24T01:00:46;18.10;99.90
27004;DHT22;14546;47.590;19.022;2023-06-24T01:03:13;18.10;99.90
27004;DHT22;14546;47.590;19.022;2023-06-24T01:05:45;18.10;99.90
27004;DHT22;14546;47.590;19.022;2023-06-24T01:36:35;17.90;99.20
27004;DHT22;14546;47.590;19.022;2023-06-24T01:39:05;17.90;99.00
27004;DHT22;14546;47.590;19.022;2023-06-24T01:41:39;17.90;98.90
27004;DHT22;14546;47.590;19.022;2023-06-24T01:44:09;17.90;98.80
27004;DHT22;14546;47.590;19.022;2023-06-24T01:46:35;17.90;98.60
27004;DHT22;14546;47.590;19.022;2023-06-24T01:49:04;17.90;98.40
27004;DHT22;14546;47.590;19.022;2023-06-24T01:51:35;17.90;98.20
27004;DHT22;14546;47.590;19.022;2023-06-24T01:54:06;17.90;98.00
27004;DHT22;14546;47.590;19.022;2023-06-24T01:56:34;17.80;97.80
27004;DHT22;14546;47.590;19.022;2023-06-24T01:59:02;17.80;97.60
27004;DHT22;14546;47.590;19.022;2023-06-24T02:01:32;17.80;97.50
27004;DHT22;14546;47.590;19.022;2023-06-24T02:04:00;17.80;97.40
27004;DHT22;14546;47.590;19.022;2023-06-24T02:06:28;17.80;97.30
27004;DHT22;14546;47.590;19.022;2023-06-24T02:08:56;17.80;97.20
27004;DHT22;14546;47.590;19.022;2023-06-24T02:11:24;17.70;97.10
27004;DHT22;14546;47.590;19.022;2023-06-24T02:13:51;17.70;97.00
27004;DHT22;14546;47.590;19.022;2023-06-24T02:16:18;17.70;96.90
27004;DHT22;14546;47.590;19.022;2023-06-24T02:18:45;17.70;96.90
27004;DHT22;14546;47.590;19.022;2023-06-24T02:21:15;17.70;96.90
27004;DHT22;14546;47.590;19.022;2023-06-24T02:23:42;17.70;96.80
27004;DHT22;14546;47.590;19.022;2023-06-24T02:26:08;17.70;96.80
27004;DHT22;14546;47.590;19.022;2023-06-24T02:28:35;17.70;96.70
27004;DHT22;14546;47.590;19.022;2023-06-24T02:31:03;17.60;96.60
27004;DHT22;14546;47.590;19.022;2023-06-24T02:33:29;17.60;96.60
27004;DHT22;14546;47.590;19.022;2023-06-24T02:35:55;17.60;96.40
27004;DHT22;14546;47.590;19.022;2023-06-24T02:38:20;17.60;96.30
27004;DHT22;14546;47.590;19.022;2023-06-24T02:40:47;17.60;96.20
27004;DHT22;14546;47.590;19.022;2023-06-24T02:43:14;17.60;95.90
27004;DHT22;14546;47.590;19.022;2023-06-24T02:45:41;17.60;95.80
27004;DHT22;14546;47.590;19.022;2023-06-24T02:48:08;17.60;95.70
27004;DHT22;14546;47.590;19.022;2023-06-24T02:50:35;17.70;95.70
27004;DHT22;14546;47.590;19.022;2023-06-24T02:53:02;17.60;95.60
27004;DHT22;14546;47.590;19.022;2023-06-24T02:55:29;17.70;95.50
27004;DHT22;14546;47.590;19.022;2023-06-24T02:57:55;17.70;95.40
27004;DHT22;14546;47.590;19.022;2023-06-24T03:00:23;17.70;95.40
27004;DHT22;14546;47.590;19.022;2023-06-24T03:02:49;17.70;95.30
27004;DHT22;14546;47.590;19.022;2023-06-24T03:05:15;17.70;95.30
27004;DHT22;14546;47.590;19.022;2023-06-24T03:07:42;17.70;95.20
27004;DHT22;14546;47.590;19.022;2023-06-24T03:10:08;17.70;95.10
27004;DHT22;14546;47.590;19.022;2023-06-24T03:12:36;17.70;95.00
27004;DHT22;14546;47.590;19.022;2023-06-24T03:15:02;17.70;94.90
27004;DHT22;14546;47.590;19.022;2023-06-24T03:17:28;17.70;94.80
27004;DHT22;14546;47.590;19.022;2023-06-24T03:19:55;17.70;94.80
27004;DHT22;14546;47.590;19.022;2023-06-24T03:22:21;17.70;94.70
27004;DHT22;14546;47.590;19.022;2023-06-24T03:24:47;17.70;94.70
27004;DHT22;14546;47.590;19.022;2023-06-24T03:27:14;17.70;94.70
27004;DHT22;14546;47.590;19.022;2023-06-24T03:29:40;17.60;94.60
27004;DHT22;14546;47.590;19.022;2023-06-24T03:32:05;17.60;94.60
27004;DHT22;14546;47.590;19.022;2023-06-24T03:34:31;17.60;94.60
27004;DHT22;14546;47.590;19.022;2023-06-24T03:36:57;17.60;94.50
27004;DHT22;14546;47.590;19.022;2023-06-24T03:39:22;17.60;94.50
27004;DHT22;14546;47.590;19.022;2023-06-24T03:41:48;17.60;94.50
27004;DHT22;14546;47.590;19.022;2023-06-24T03:44:14;17.60;94.50
27004;DHT22;14546;47.590;19.022;2023-06-24T03:46:40;17.60;94.50
27004;DHT22;14546;47.590;19.022;2023-06-24T03:49:05;17.60;94.40
27004;DHT22;14546;47.590;19.022;2023-06-24T03:51:31;17.60;94.40
27004;DHT22;14546;47.590;19.022;2023-06-24T03:53:57;17.60;94.40
27004;DHT22;14546;47.590;19.022;2023-06-24T03:56:23;17.60;94.40
27004;DHT22;14546;47.590;19.022;2023-06-24T03:58:48;17.60;94.40
27004;DHT22;14546;47.590;19.022;2023-06-24T04:01:14;17.60;94.30
27004;DHT22;14546;47.590;19.022;2023-06-24T04:03:40;17.60;94.30
27004;DHT22;14546;47.590;19.022;2023-06-24T04:06:05;17.50;94.20
27004;DHT22;14546;47.590;19.022;2023-06-24T04:08:31;17.60;94.30
27004;DHT22;14546;47.590;19.022;2023-06-24T04:10:57;17.60;94.30
27004;DHT22;14546;47.590;19.022;2023-06-24T04:13:25;17.60;94.20
27004;DHT22;14546;47.590;19.022;2023-06-24T04:15:51;17.60;94.20
27004;DHT22;14546;47.590;19.022;2023-06-24T04:18:18;17.70;94.10
27004;DHT22;14546;47.590;19.022;2023-06-24T04:20:44;17.70;94.10
27004;DHT22;14546;47.590;19.022;2023-06-24T04:23:09;17.70;94.00
27004;DHT22;14546;47.590;19.022;2023-06-24T04:25:36;17.70;94.00
27004;DHT22;14546;47.590;19.022;2023-06-24T04:28:03;17.70;93.90
27004;DHT22;14546;47.590;19.022;2023-06-24T04:30:30;17.70;93.70
27004;DHT22;14546;47.590;19.022;2023-06-24T04:32:56;17.80;93.70
27004;DHT22;14546;47.590;19.022;2023-06-24T04:35:21;17.80;93.60
27004;DHT22;14546;47.590;19.022;2023-06-24T04:37:47;17.80;93.50
27004;DHT22;14546;47.590;19.022;2023-06-24T04:40:18;17.90;93.50
27004;DHT22;14546;47.590;19.022;2023-06-24T04:42:45;17.90;93.30
27004;DHT22;14546;47.590;19.022;2023-06-24T04:45:11;17.90;93.20
27004;DHT22;14546;47.590;19.022;2023-06-24T04:47:36;18.00;93.10
27004;DHT22;14546;47.590;19.022;2023-06-24T04:50:03;18.00;93.00
27004;DHT22;14546;47.590;19.022;2023-06-24T04:52:29;18.00;93.00
27004;DHT22;14546;47.590;19.022;2023-06-24T04:54:54;18.00;92.90
27004;DHT22;14546;47.590;19.022;2023-06-24T04:57:27;18.00;92.90
27004;DHT22;14546;47.590;19.022;2023-06-24T04:59:53;18.00;92.80
27004;DHT22;14546;47.590;19.022;2023-06-24T05:02:19;18.10;92.80
27004;DHT22;14546;47.590;19.022;2023-06-24T05:04:45;18.10;92.80
27004;DHT22;14546;47.590;19.022;2023-06-24T05:07:10;18.10;92.60
27004;DHT22;14546;47.590;19.022;2023-06-24T05:09:37;18.20;92.50
27004;DHT22;14546;47.590;19.022;2023-06-24T05:12:06;18.20;92.50
27004;DHT22;14546;47.590;19.022;2023-06-24T05:14:34;18.20;92.30
27004;DHT22;14546;47.590;19.022;2023-06-24T05:17:00;18.20;92.30
27004;DHT22;14546;47.590;19.022;2023-06-24T05:19:26;18.30;92.30
27004;DHT22;14546;47.590;19.022;2023-06-24T05:21:52;18.30;92.30
27004;DHT22;14546;47.590;19.022;2023-06-24T05:24:17;18.30;92.20
27004;DHT22;14546;47.590;19.022;2023-06-24T05:26:45;18.30;92.00
27004;DHT22;14546;47.590;19.022;2023-06-24T05:29:11;18.40;92.10
27004;DHT22;14546;47.590;19.022;2023-06-24T05:31:37;18.40;92.00
27004;DHT22;14546;47.590;19.022;2023-06-24T05:34:03;18.40;92.00
27004;DHT22;14546;47.590;19.022;2023-06-24T05:36:28;18.50;91.80
27004;DHT22;14546;47.590;19.022;2023-06-24T06:59:16;18.50;91.80
27004;DHT22;14546;47.590;19.022;2023-06-24T07:01:43;19.90;88.60
27004;DHT22;14546;47.590;19.022;2023-06-24T07:04:08;20.00;88.30
27004;DHT22;14546;47.590;19.022;2023-06-24T07:06:34;20.10;88.20
27004;DHT22;14546;47.590;19.022;2023-06-24T21:13:13;20.20;88.10
27004;DHT22;14546;47.590;19.022;2023-06-24T21:15:39;20.60;79.90
27004;DHT22;14546;47.590;19.022;2023-06-24T21:18:04;20.20;79.80
27004;DHT22;14546;47.590;19.022;2023-06-24T21:20:30;20.10;79.80
27004;DHT22;14546;47.590;19.022;2023-06-24T21:22:55;20.10;79.90
27004;DHT22;14546;47.590;19.022;2023-06-24T21:25:21;20.10;80.00
27004;DHT22;14546;47.590;19.022;2023-06-24T21:27:47;20.10;80.20
27004;DHT22;14546;47.590;19.022;2023-06-24T21:30:12;20.10;80.20
27004;DHT22;14546;47.590;19.022;2023-06-24T21:32:39;20.10;80.30
27004;DHT22;14546;47.590;19.022;2023-06-24T21:35:05;20.10;80.50
27004;DHT22;14546;47.590;19.022;2023-06-24T21:37:30;20.10;80.50
27004;DHT22;14546;47.590;19.022;2023-06-24T21:39:56;20.20;80.50
27004;DHT22;14546;47.590;19.022;2023-06-24T21:42:22;20.20;80.40
27004;DHT22;14546;47.590;19.022;2023-06-24T21:44:47;20.20;80.50
27004;DHT22;14546;47.590;19.022;2023-06-24T21:47:13;20.20;80.60
27004;DHT22;14546;47.590;19.022;2023-06-24T21:49:39;20.20;80.60
27004;DHT22;14546;47.590;19.022;2023-06-24T21:52:04;20.20;80.50
27004;DHT22;14546;47.590;19.022;2023-06-24T21:54:30;20.20;80.50
27004;DHT22;14546;47.590;19.022;2023-06-24T21:56:56;20.20;80.60
27004;DHT22;14546;47.590;19.022;2023-06-24T21:59:22;20.20;80.70
27004;DHT22;14546;47.590;19.022;2023-06-24T22:01:47;20.20;80.80
27004;DHT22;14546;47.590;19.022;2023-06-24T22:04:13;20.20;80.90
27004;DHT22;14546;47.590;19.022;2023-06-24T22:06:39;20.20;81.00
27004;DHT22;14546;47.590;19.022;2023-06-24T22:09:04;20.20;81.10
27004;DHT22;14546;47.590;19.022;2023-06-24T22:11:30;20.10;81.20
27004;DHT22;14546;47.590;19.022;2023-06-24T22:13:56;20.20;81.30
27004;DHT22;14546;47.590;19.022;2023-06-24T22:16:21;20.20;81.50
27004;DHT22;14546;47.590;19.022;2023-06-24T22:18:47;20.20;81.50
27004;DHT22;14546;47.590;19.022;2023-06-24T22:21:12;20.20;81.30
27004;DHT22;14546;47.590;19.022;2023-06-24T22:23:38;20.20;81.40
27004;DHT22;14546;47.590;19.022;2023-06-24T22:26:04;20.20;81.60
27004;DHT22;14546;47.590;19.022;2023-06-24T22:28:30;20.30;81.80
27004;DHT22;14546;47.590;19.022;2023-06-24T22:30:55;20.20;81.70
27004;DHT22;14546;47.590;19.022;2023-06-24T22:33:21;20.30;81.70
27004;DHT22;14546;47.590;19.022;2023-06-24T22:35:47;20.30;81.90
27004;DHT22;14546;47.590;19.022;2023-06-24T22:38:12;20.30;82.20
27004;DHT22;14546;47.590;19.022;2023-06-24T22:40:38;20.40;82.40
27004;DHT22;14546;47.590;19.022;2023-06-24T22:43:03;20.40;82.60
27004;DHT22;14546;47.590;19.022;2023-06-24T22:45:29;20.40;82.90
27004;DHT22;14546;47.590;19.022;2023-06-24T22:47:55;20.40;83.20
27004;DHT22;14546;47.590;19.022;2023-06-24T22:50:21;20.40;83.40
27004;DHT22;14546;47.590;19.022;2023-06-24T22:52:47;20.50;83.80
27004;DHT22;14546;47.590;19.022;2023-06-24T22:55:12;20.50;84.00
27004;DHT22;14546;47.590;19.022;2023-06-24T22:57:38;20.50;84.30
